Time;durP1;ratioP1;P1;durP2;ratioP2;P2;SDS_P1;SDS_P2;PMS_P1;PMS_P2;Temp;Humidity;BMP_temperature;BMP_pressure;BME280_temperature;BME280_humidity;BME280_pressure;Samples;Min_cycle;Max_cycle;Signal;HPM_P1;HPM_P2
2021/05/23 04:00:46;;;;;;;2.77;0.80;;;7.00;96.30;;;;;;5807863;23;20519;-78
2021/05/23 04:03:11;;;;;;;2.63;1.00;;;7.30;96.30;;;;;;4996223;28;20445;-75
2021/05/23 04:05:37;;;;;;;6.10;1.00;;;7.50;96.30;;;;;;4996539;28;20174;-76
2021/05/23 04:08:04;;;;;;;4.40;0.97;;;7.80;96.30;;;;;;4996121;28;20194;-75
2021/05/23 04:10:48;;;;;;;3.73;0.90;;;8.10;96.30;;;;;;4995076;28;20201;-74
2021/05/23 04:13:14;;;;;;;5.10;1.00;;;8.60;96.30;;;;;;4997056;28;20393;-75
2021/05/23 04:15:40;;;;;;;2.33;0.77;;;8.90;96.30;;;;;;4995159;28;20419;-75
2021/05/23 04:18:05;;;;;;;3.93;0.87;;;9.40;96.30;;;;;;4995967;28;20177;-76
2021/05/23 04:20:31;;;;;;;4.60;1.23;;;9.80;96.30;;;;;;4996118;28;20685;-76
2021/05/23 04:22:57;;;;;;;4.97;0.77;;;10.10;96.30;;;;;;4994717;28;20622;-77
2021/05/23 04:25:23;;;;;;;3.80;1.00;;;10.10;96.30;;;;;;4996018;28;20427;-74
2021/05/23 04:27:50;;;;;;;2.77;1.10;;;10.10;96.30;;;;;;4995457;28;20693;-78
2021/05/23 04:30:18;;;;;;;2.50;0.87;;;10.10;96.30;;;;;;4994261;28;20448;-75
2021/05/23 04:32:44;;;;;;;2.33;0.90;;;10.10;96.30;;;;;;4995852;28;20427;-75
2021/05/23 04:35:11;;;;;;;1.47;0.70;;;10.20;96.30;;;;;;4994516;28;20917;-76
2021/05/23 04:37:36;;;;;;;2.03;0.77;;;10.20;96.30;;;;;;4995572;28;20709;-75
2021/05/23 04:40:04;;;;;;;4.63;0.80;;;10.20;96.30;;;;;;4995604;28;20563;-75
2021/05/23 04:42:29;;;;;;;2.53;0.83;;;10.20;96.30;;;;;;4995677;28;20205;-75
2021/05/23 04:44:54;;;;;;;4.37;1.00;;;10.20;96.30;;;;;;4995792;28;20825;-75
2021/05/23 04:47:20;;;;;;;2.40;1.00;;;10.10;96.30;;;;;;4995233;28;20189;-75
2021/05/23 04:49:46;;;;;;;2.80;0.70;;;10.10;96.30;;;;;;4995466;28;20158;-77
2021/05/23 04:52:13;;;;;;;4.77;0.63;;;9.90;96.30;;;;;;4994493;28;20221;-75
2021/05/23 04:54:39;;;;;;;1.40;0.80;;;9.90;96.30;;;;;;4995719;28;20249;-75
2021/05/23 04:57:06;;;;;;;1.27;0.67;;;9.80;96.30;;;;;;4995555;28;20419;-75
2021/05/23 04:59:32;;;;;;;3.43;0.70;;;10.00;96.30;;;;;;4995695;28;20423;-75
2021/05/23 05:01:57;;;;;;;2.07;0.80;;;10.10;96.30;;;;;;4994448;28;20552;-75
2021/05/23 05:04:23;;;;;;;1.90;1.00;;;10.30;96.30;;;;;;4995794;28;20173;-75
2021/05/23 05:06:49;;;;;;;2.27;0.73;;;10.50;96.30;;;;;;4995101;28;20173;-75
2021/05/23 05:09:14;;;;;;;3.70;0.70;;;10.60;96.30;;;;;;4995895;28;20216;-77
2021/05/23 05:11:40;;;;;;;1.73;0.70;;;10.40;96.30;;;;;;4994407;28;20634;-75
2021/05/23 05:14:06;;;;;;;1.80;0.70;;;10.30;96.30;;;;;;4995464;28;20726;-75
2021/05/23 05:16:31;;;;;;;2.53;1.53;;;10.10;96.30;;;;;;4994073;28;20173;-75
2021/05/23 05:18:57;;;;;;;1.33;0.63;;;10.20;96.30;;;;;;4995325;28;20178;-76
2021/05/23 05:21:23;;;;;;;2.50;0.77;;;10.30;96.30;;;;;;4995470;28;20186;-78
2021/05/23 05:23:48;;;;;;;4.97;1.30;;;10.30;96.30;;;;;;4995373;28;20426;-75
2021/05/23 05:26:14;;;;;;;3.30;1.27;;;10.40;96.30;;;;;;4993589;28;20548;-75
2021/05/23 05:28:40;;;;;;;1.50;0.70;;;10.70;96.30;;;;;;4994974;28;20201;-74
2021/05/23 05:31:05;;;;;;;3.60;0.90;;;10.90;96.30;;;;;;4995233;28;20193;-77
2021/05/23 05:33:31;;;;;;;1.10;0.70;;;10.90;96.30;;;;;;4995283;28;20450;-75
2021/05/23 05:35:56;;;;;;;7.70;0.73;;;10.90;96.30;;;;;;4993883;28;20231;-75
2021/05/23 05:38:22;;;;;;;3.27;0.70;;;10.90;96.30;;;;;;4994591;28;20684;-75
2021/05/23 05:40:47;;;;;;;1.77;1.00;;;10.90;96.30;;;;;;4994853;28;20224;-76
2021/05/23 05:43:13;;;;;;;3.70;1.07;;;11.00;96.30;;;;;;4993348;28;20170;-75
2021/05/23 05:45:39;;;;;;;3.43;0.80;;;11.00;96.30;;;;;;4993465;28;20552;-75
2021/05/23 05:48:05;;;;;;;4.93;1.00;;;11.20;96.30;;;;;;4994364;28;20193;-75
2021/05/23 05:50:30;;;;;;;2.33;0.87;;;11.50;96.30;;;;;;4994127;28;20204;-75
2021/05/23 05:52:56;;;;;;;3.63;0.97;;;11.60;96.30;;;;;;4994098;28;20173;-78
2021/05/23 05:55:21;;;;;;;3.50;0.83;;;11.30;96.30;;;;;;4994203;28;20200;-75
2021/05/23 05:57:47;;;;;;;4.83;0.80;;;11.50;96.30;;;;;;4994020;28;20180;-75
2021/05/23 06:00:13;;;;;;;2.23;0.70;;;11.40;96.30;;;;;;4993777;28;20177;-76
2021/05/23 06:02:39;;;;;;;2.23;0.80;;;11.40;96.30;;;;;;4993043;28;20185;-78
2021/05/23 06:05:06;;;;;;;1.50;0.70;;;11.50;96.30;;;;;;4994238;28;20535;-75
2021/05/23 06:07:31;;;;;;;4.07;1.33;;;12.30;94.70;;;;;;4993880;28;20528;-75
2021/05/23 06:09:57;;;;;;;1.70;1.00;;;12.50;94.00;;;;;;4992558;28;20519;-76
2021/05/23 06:12:22;;;;;;;1.50;1.10;;;12.70;96.10;;;;;;4989142;28;20256;-79
2021/05/23 06:14:48;;;;;;;2.80;0.80;;;13.40;93.70;;;;;;4991493;28;20205;-77
2021/05/23 06:17:13;;;;;;;3.67;1.10;;;13.40;91.60;;;;;;4991818;28;20249;-76
2021/05/23 06:19:39;;;;;;;3.30;0.97;;;13.50;93.50;;;;;;4992782;28;20666;-78
2021/05/23 06:22:05;;;;;;;2.80;0.80;;;14.10;91.20;;;;;;4991467;28;20248;-77
2021/05/23 06:24:30;;;;;;;5.37;1.00;;;14.80;90.50;;;;;;4993174;28;20244;-76
2021/05/23 06:26:56;;;;;;;3.83;0.90;;;15.30;87.10;;;;;;4993122;28;20544;-76
2021/05/23 06:29:21;;;;;;;3.43;1.00;;;15.30;85.10;;;;;;4993484;28;20682;-77
2021/05/23 06:31:47;;;;;;;6.30;1.00;;;15.10;89.60;;;;;;4992876;28;20205;-76
2021/05/23 06:34:12;;;;;;;5.03;0.93;;;15.30;86.70;;;;;;4993762;28;20196;-76
2021/05/23 06:36:38;;;;;;;5.97;0.90;;;15.40;87.30;;;;;;4992839;28;20158;-76
2021/05/23 06:39:08;;;;;;;2.87;1.00;;;15.80;87.60;;;;;;4993135;28;20525;-78
2021/05/23 06:41:34;;;;;;;3.23;0.80;;;16.50;85.70;;;;;;4993272;28;20248;-76
2021/05/23 06:44:00;;;;;;;2.90;1.00;;;16.70;85.60;;;;;;4991184;28;20425;-78
2021/05/23 06:46:25;;;;;;;7.40;1.20;;;17.10;83.20;;;;;;4991866;28;20431;-77
2021/05/23 06:48:51;;;;;;;3.97;1.07;;;17.20;82.70;;;;;;4992080;28;20197;-76
2021/05/23 06:51:16;;;;;;;1.77;1.03;;;17.50;81.90;;;;;;4992403;28;21558;-78
2021/05/23 06:53:42;;;;;;;5.00;1.17;;;16.90;82.20;;;;;;4992489;28;20564;-79
2021/05/23 06:56:08;;;;;;;6.13;1.00;;;17.30;83.10;;;;;;4990897;28;20215;-78
2021/05/23 06:58:33;;;;;;;2.50;0.80;;;17.90;80.10;;;;;;4992507;28;20182;-78
2021/05/23 07:00:59;;;;;;;3.80;0.90;;;18.20;83.20;;;;;;4990987;28;20228;-78
2021/05/23 07:03:25;;;;;;;1.90;0.83;;;17.60;81.10;;;;;;4992672;28;20177;-77
2021/05/23 07:05:50;;;;;;;2.50;0.80;;;16.60;80.60;;;;;;4992694;28;20169;-79
2021/05/23 07:08:18;;;;;;;2.20;0.80;;;15.10;84.50;;;;;;4991569;28;20196;-76
2021/05/23 07:10:43;;;;;;;2.70;0.90;;;14.40;88.50;;;;;;4992423;28;20244;-77
2021/05/23 07:13:09;;;;;;;2.13;0.83;;;14.60;88.90;;;;;;4991213;28;20416;-78
2021/05/23 07:15:34;;;;;;;3.03;0.80;;;14.90;86.60;;;;;;4992900;28;20234;-77
2021/05/23 07:18:00;;;;;;;3.47;1.07;;;14.70;87.90;;;;;;4990916;28;20178;-77
2021/05/23 07:20:26;;;;;;;4.60;1.50;;;14.70;89.10;;;;;;4991633;28;20574;-76
2021/05/23 07:22:52;;;;;;;2.93;0.80;;;15.30;88.50;;;;;;4992946;28;20657;-79
2021/05/23 07:25:17;;;;;;;1.30;0.70;;;15.80;85.20;;;;;;4992994;28;20169;-78
2021/05/23 07:27:43;;;;;;;1.60;0.80;;;14.80;88.10;;;;;;4992243;28;20471;-77
2021/05/23 07:30:09;;;;;;;1.47;0.70;;;14.80;88.90;;;;;;4991623;28;20177;-76
2021/05/23 07:32:34;;;;;;;1.20;0.80;;;14.40;86.20;;;;;;4992887;28;20201;-77
2021/05/23 07:35:00;;;;;;;2.40;0.90;;;14.20;86.00;;;;;;4992995;28;20178;-77
2021/05/23 07:37:25;;;;;;;1.50;0.70;;;14.00;87.90;;;;;;4996706;28;20192;-77
2021/05/23 07:39:51;;;;;;;1.90;0.80;;;14.00;87.10;;;;;;4996584;28;20192;-77
2021/05/23 07:42:16;;;;;;;1.73;0.80;;;14.40;87.90;;;;;;4995182;28;20716;-76
2021/05/23 07:44:42;;;;;;;2.87;1.10;;;14.30;88.40;;;;;;4995272;28;20181;-77
2021/05/23 07:47:07;;;;;;;1.30;0.70;;;14.60;87.60;;;;;;4994661;28;20193;-76
2021/05/23 07:49:40;;;;;;;3.40;1.00;;;14.40;86.50;;;;;;4996214;28;20538;-77
2021/05/23 07:52:09;;;;;;;2.63;0.70;;;14.10;90.30;;;;;;4994703;28;20201;-76
2021/05/23 07:54:35;;;;;;;2.77;0.70;;;14.20;89.00;;;;;;4995117;28;20841;-77
2021/05/23 07:57:02;;;;;;;2.30;0.77;;;14.20;89.40;;;;;;4994137;28;20416;-78
2021/05/23 07:59:28;;;;;;;1.43;0.70;;;14.30;87.20;;;;;;4994967;28;20186;-77
2021/05/23 08:01:54;;;;;;;2.20;0.80;;;14.80;87.20;;;;;;4987064;28;20461;-76
2021/05/23 08:04:19;;;;;;;1.27;0.60;;;15.30;87.60;;;;;;4985433;28;20432;-77
2021/05/23 08:06:45;;;;;;;2.00;0.80;;;16.00;86.70;;;;;;4995162;28;20196;-77
2021/05/23 08:09:10;;;;;;;1.73;0.73;;;15.60;85.20;;;;;;4995706;28;20188;-77
2021/05/23 08:11:36;;;;;;;3.73;1.00;;;16.10;83.40;;;;;;4994722;28;20279;-77
2021/05/23 08:14:02;;;;;;;2.90;0.90;;;16.50;86.40;;;;;;4976582;28;20182;-76
2021/05/23 08:16:27;;;;;;;2.30;0.90;;;17.20;82.10;;;;;;4985307;28;20177;-77
2021/05/23 08:18:53;;;;;;;2.13;0.70;;;16.40;81.80;;;;;;4976508;28;20186;-77
2021/05/23 08:21:18;;;;;;;2.40;0.77;;;17.30;83.40;;;;;;4976431;28;20198;-79
2021/05/23 08:23:44;;;;;;;2.53;1.00;;;18.20;80.20;;;;;;4993161;28;20190;-78
2021/05/23 08:26:10;;;;;;;1.50;0.73;;;17.50;81.70;;;;;;4975616;28;20190;-79
2021/05/23 08:28:35;;;;;;;1.00;0.80;;;16.80;81.10;;;;;;4976767;28;20229;-78
2021/05/23 08:31:02;;;;;;;1.73;0.80;;;16.90;82.70;;;;;;4985018;28;20444;-79
2021/05/23 08:33:27;;;;;;;2.60;1.20;;;17.50;80.40;;;;;;4979214;28;20180;-78
2021/05/23 08:35:53;;;;;;;2.00;1.07;;;17.70;82.70;;;;;;4985133;28;20441;-78
2021/05/23 08:38:19;;;;;;;2.37;1.00;;;18.10;82.20;;;;;;4992186;28;20268;-77
2021/05/23 08:40:45;;;;;;;1.27;0.70;;;18.30;78.30;;;;;;4982408;28;20204;-78
2021/05/23 08:43:11;;;;;;;3.83;1.00;;;17.00;79.80;;;;;;4995360;28;20181;-75
2021/05/23 08:45:37;;;;;;;2.30;0.80;;;16.40;82.20;;;;;;4979324;28;20440;-78
2021/05/23 08:48:04;;;;;;;2.03;0.83;;;16.20;83.20;;;;;;4987206;28;20471;-79
2021/05/23 08:50:30;;;;;;;2.40;0.83;;;17.00;87.30;;;;;;4977055;28;20178;-78
2021/05/23 08:53:01;;;;;;;1.53;0.70;;;17.30;82.50;;;;;;4985775;28;20425;-78
2021/05/23 08:55:29;;;;;;;1.47;0.70;;;17.40;80.50;;;;;;4977117;28;20162;-79
2021/05/23 08:57:57;;;;;;;1.47;0.80;;;16.80;77.70;;;;;;4981078;28;20932;-79
2021/05/23 09:00:23;;;;;;;3.70;0.90;;;15.80;83.20;;;;;;4982968;28;20417;-76
2021/05/23 09:02:53;;;;;;;1.03;0.70;;;15.80;86.30;;;;;;4994764;28;20408;-78
2021/05/23 09:05:35;;;;;;;3.33;0.97;;;15.80;84.80;;;;;;4986797;28;20443;-78
2021/05/23 09:08:04;;;;;;;3.13;0.87;;;16.50;83.30;;;;;;4998015;28;20519;-79
2021/05/23 09:10:32;;;;;;;1.80;0.70;;;17.20;81.70;;;;;;5000558;28;20409;-79
2021/05/23 09:12:58;;;;;;;1.30;0.70;;;17.10;78.80;;;;;;5001488;28;20421;-80
2021/05/23 09:15:24;;;;;;;4.77;1.73;;;17.90;79.60;;;;;;5003470;28;20443;-80
2021/05/23 09:18:09;;;;;;;2.03;0.70;;;18.60;78.30;;;;;;5002323;28;20497;-78
2021/05/23 09:20:42;;;;;;;1.63;0.73;;;17.60;77.20;;;;;;5005513;28;20437;-78
2021/05/23 09:23:14;;;;;;;2.40;0.90;;;17.90;78.90;;;;;;5007937;28;20421;-82
2021/05/23 09:25:40;;;;;;;2.03;0.90;;;17.80;81.30;;;;;;5006749;28;20782;-81
2021/05/23 09:28:07;;;;;;;2.03;0.83;;;18.30;80.20;;;;;;4997382;28;20468;-77
2021/05/23 09:30:35;;;;;;;2.30;1.00;;;17.50;80.40;;;;;;5000139;28;20524;-80
2021/05/23 09:33:01;;;;;;;1.60;0.80;;;18.10;77.70;;;;;;5001008;28;20428;-80
2021/05/23 09:35:28;;;;;;;1.70;0.60;;;17.00;76.30;;;;;;4999397;28;20784;-80
2021/05/23 09:38:05;;;;;;;2.03;0.77;;;16.10;79.50;;;;;;4994827;28;20424;-79
2021/05/23 09:40:39;;;;;;;1.40;0.60;;;15.30;84.30;;;;;;4998912;28;20415;-80
2021/05/23 09:43:07;;;;;;;1.93;0.90;;;15.30;83.00;;;;;;4996602;28;20511;-80
2021/05/23 09:45:42;;;;;;;2.40;1.23;;;15.00;83.70;;;;;;4996762;28;20498;-80
2021/05/23 09:48:15;;;;;;;1.13;0.67;;;14.60;86.20;;;;;;4996504;28;20983;-80
2021/05/23 09:50:43;;;;;;;1.30;0.70;;;14.40;86.80;;;;;;4997211;28;20970;-80
2021/05/23 09:53:24;;;;;;;5.53;0.77;;;14.30;85.80;;;;;;4997705;28;20408;-80
2021/05/23 09:55:54;;;;;;;2.80;0.90;;;14.10;88.60;;;;;;4999193;28;20459;-80
2021/05/23 09:58:41;;;;;;;2.53;0.70;;;15.10;88.00;;;;;;4997248;28;20780;-82
2021/05/23 10:01:10;;;;;;;4.10;0.80;;;14.80;85.90;;;;;;4997819;28;20844;-81
2021/05/23 10:03:40;;;;;;;1.10;0.60;;;15.20;87.60;;;;;;4996353;28;20425;-81
2021/05/23 10:06:07;;;;;;;1.33;0.77;;;15.20;87.10;;;;;;4999865;28;20452;-79
2021/05/23 10:08:34;;;;;;;1.90;0.60;;;16.60;88.70;;;;;;4997164;28;20476;-81
2021/05/23 10:10:59;;;;;;;2.03;0.60;;;17.10;80.00;;;;;;5000184;28;20475;-81
2021/05/23 10:13:26;;;;;;;1.00;0.60;;;17.60;80.00;;;;;;4999098;28;20909;-79
2021/05/23 10:15:53;;;;;;;1.40;0.70;;;18.10;78.30;;;;;;4997813;28;20189;-79
2021/05/23 10:18:26;;;;;;;0.87;0.50;;;18.60;78.30;;;;;;4999933;28;20487;-80
2021/05/23 10:20:54;;;;;;;1.50;0.70;;;18.20;77.60;;;;;;5000760;28;20452;-81
2021/05/23 10:23:25;;;;;;;1.40;0.67;;;17.90;76.80;;;;;;5002075;28;20483;-80
2021/05/23 10:25:54;;;;;;;1.90;0.80;;;16.70;77.90;;;;;;4995345;28;20444;-84
2021/05/23 10:28:22;;;;;;;1.43;0.70;;;15.80;81.50;;;;;;4982500;28;20444;-83
2021/05/23 10:30:53;;;;;;;2.60;1.00;;;15.10;84.50;;;;;;4989752;28;20436;-85
2021/05/23 10:33:20;;;;;;;2.07;0.77;;;14.40;93.00;;;;;;4994983;28;20427;-80
2021/05/23 10:35:47;;;;;;;1.30;0.77;;;13.70;96.30;;;;;;4997583;28;20941;-80
2021/05/23 10:38:15;;;;;;;2.40;0.70;;;13.30;96.30;;;;;;4998779;28;20424;-81
2021/05/23 10:41:18;;;;;;;1.20;0.70;;;13.70;96.30;;;;;;4995290;28;20483;-82
2021/05/23 10:43:46;;;;;;;3.77;0.90;;;15.30;96.30;;;;;;4980503;28;20429;-83
2021/05/23 10:46:14;;;;;;;1.60;0.80;;;17.00;96.30;;;;;;4992618;28;20409;-82
2021/05/23 10:48:55;;;;;;;5.30;2.90;;;16.00;93.30;;;;;;4991635;28;20460;-82
2021/05/23 10:51:21;;;;;;;1.87;1.07;;;15.30;90.50;;;;;;4992913;28;20440;-82
2021/05/23 10:53:47;;;;;;;2.80;1.80;;;15.40;93.50;;;;;;4991632;28;20416;-82
2021/05/23 10:56:25;;;;;;;2.07;0.70;;;16.40;92.10;;;;;;4992499;28;20415;-82
2021/05/23 10:58:55;;;;;;;2.80;0.80;;;17.00;88.10;;;;;;4993133;28;20154;-82
2021/05/23 11:01:39;;;;;;;1.90;0.70;;;16.30;87.00;;;;;;4991540;28;20463;-82
2021/05/23 11:04:10;;;;;;;3.47;1.20;;;15.80;85.90;;;;;;4991764;28;20802;-82
2021/05/23 11:06:36;;;;;;;3.10;0.80;;;15.90;86.90;;;;;;4992505;28;20446;-81
2021/05/23 11:09:06;;;;;;;4.17;1.00;;;16.50;85.70;;;;;;4991332;28;20949;-81
2021/05/23 11:11:32;;;;;;;2.33;1.00;;;16.60;82.00;;;;;;4991512;28;20247;-82
2021/05/23 11:14:12;;;;;;;1.63;0.80;;;16.40;83.50;;;;;;4989254;28;20425;-81
2021/05/23 11:16:51;;;;;;;1.27;0.80;;;15.70;85.10;;;;;;4991656;28;20268;-80
2021/05/23 11:19:18;;;;;;;6.67;2.63;;;15.40;84.80;;;;;;4991274;28;20415;-83
2021/05/23 11:21:45;;;;;;;1.43;0.90;;;16.10;85.00;;;;;;4992173;28;20445;-82
2021/05/23 11:24:11;;;;;;;2.37;1.47;;;17.50;87.30;;;;;;4991308;28;20409;-83
2021/05/23 11:26:37;;;;;;;1.73;0.93;;;17.50;82.80;;;;;;4992112;28;20460;-82
2021/05/23 11:29:05;;;;;;;7.20;5.03;;;17.30;81.20;;;;;;4992428;28;20453;-83
2021/05/23 11:31:40;;;;;;;8.73;4.00;;;17.20;81.80;;;;;;4991216;28;20432;-83
2021/05/23 11:34:07;;;;;;;5.03;0.70;;;17.60;81.10;;;;;;4992622;28;20413;-82
2021/05/23 11:36:35;;;;;;;3.07;2.20;;;18.00;81.50;;;;;;4991803;28;20413;-83
2021/05/23 11:39:04;;;;;;;3.00;0.90;;;17.00;79.30;;;;;;4991212;28;20470;-82
2021/05/23 11:41:32;;;;;;;1.57;0.80;;;17.10;82.30;;;;;;4989637;28;20510;-82
2021/05/23 11:43:59;;;;;;;3.03;1.17;;;17.00;80.10;;;;;;4984691;28;20800;-81
2021/05/23 11:46:26;;;;;;;2.80;0.90;;;16.70;79.90;;;;;;4971694;28;20417;-82
2021/05/23 11:48:52;;;;;;;1.47;0.70;;;16.60;81.20;;;;;;4981627;28;20456;-82
2021/05/23 11:51:24;;;;;;;3.00;1.00;;;16.80;82.40;;;;;;4991334;28;20440;-81
2021/05/23 11:53:55;;;;;;;1.30;0.67;;;16.60;83.20;;;;;;4978967;28;20449;-81
2021/05/23 11:56:29;;;;;;;2.10;0.70;;;16.50;89.20;;;;;;4980699;28;20943;-82
2021/05/23 11:58:57;;;;;;;1.10;0.70;;;16.00;86.10;;;;;;4983495;28;20966;-81
2021/05/23 12:01:30;;;;;;;4.40;0.80;;;15.40;87.30;;;;;;4989793;28;20983;-82
2021/05/23 12:04:07;;;;;;;1.93;1.10;;;15.80;93.50;;;;;;4988527;28;20447;-82
2021/05/23 12:06:34;;;;;;;2.30;0.90;;;16.70;93.90;;;;;;4978936;28;20438;-84
2021/05/23 12:09:14;;;;;;;0.90;0.60;;;16.20;89.60;;;;;;4990721;28;20453;-82
2021/05/23 12:11:49;;;;;;;3.07;1.00;;;15.50;90.80;;;;;;4989980;28;20429;-81
2021/05/23 12:14:23;;;;;;;2.60;1.40;;;14.70;91.60;;;;;;4991446;28;20416;-82
2021/05/23 12:16:57;;;;;;;1.63;0.57;;;13.70;95.90;;;;;;4988496;28;20444;-82
2021/05/23 12:19:59;;;;;;;3.00;1.83;;;12.90;96.30;;;;;;4990471;28;20447;-82
2021/05/23 12:22:31;;;;;;;1.87;1.20;;;13.10;96.30;;;;;;4987617;28;20798;-83
2021/05/23 12:25:03;;;;;;;1.40;1.30;;;13.20;96.30;;;;;;4987041;28;20432;-83
2021/05/23 12:27:40;;;;;;;1.60;1.13;;;13.30;96.30;;;;;;4978715;28;20469;-83
2021/05/23 12:30:24;;;;;;;2.03;0.90;;;14.30;96.30;;;;;;4987869;28;20431;-78
2021/05/23 12:32:54;;;;;;;2.40;0.80;;;15.70;96.30;;;;;;4995856;28;20405;-74
2021/05/23 12:35:30;;;;;;;1.20;0.70;;;16.10;92.20;;;;;;4993605;28;20416;-80
2021/05/23 12:38:13;;;;;;;1.60;0.80;;;16.80;89.20;;;;;;4994163;28;20420;-80
2021/05/23 12:40:42;;;;;;;2.83;0.70;;;16.80;88.30;;;;;;4990099;28;20479;-80
2021/05/23 12:43:20;;;;;;;1.00;0.70;;;17.20;86.70;;;;;;4994829;28;20425;-80
2021/05/23 12:45:58;;;;;;;1.70;0.70;;;17.20;85.00;;;;;;4996508;28;20809;-79
2021/05/23 12:48:35;;;;;;;1.20;0.80;;;17.20;85.50;;;;;;4997205;28;20797;-80
2021/05/23 12:51:07;;;;;;;2.60;1.10;;;17.80;85.90;;;;;;4994976;28;20441;-79
2021/05/23 12:53:39;;;;;;;1.07;0.60;;;17.50;81.70;;;;;;4995463;28;20496;-84
2021/05/23 12:56:13;;;;;;;1.27;0.70;;;16.30;80.70;;;;;;4978454;28;20504;-83
2021/05/23 12:58:46;;;;;;;3.30;0.80;;;13.90;92.30;;;;;;4994040;28;20416;-85
2021/05/23 13:01:36;;;;;;;1.50;0.70;;;13.20;96.30;;;;;;4993717;28;20875;-85
2021/05/23 13:04:04;;;;;;;1.33;0.60;;;12.90;96.30;;;;;;4982277;28;20421;-83
2021/05/23 13:06:55;;;;;;;1.47;0.60;;;12.80;96.30;;;;;;4993962;28;20429;-83
2021/05/23 13:09:29;;;;;;;1.40;0.70;;;12.90;96.30;;;;;;4993645;28;20417;-84
2021/05/23 13:11:59;;;;;;;1.13;0.60;;;13.00;96.30;;;;;;4993738;28;20522;-83
2021/05/23 13:14:26;;;;;;;2.30;0.80;;;13.00;96.30;;;;;;4993551;28;20413;-83
2021/05/23 13:16:56;;;;;;;1.00;0.60;;;13.00;96.30;;;;;;4994100;28;20415;-83
2021/05/23 13:19:27;;;;;;;2.40;0.80;;;13.00;96.30;;;;;;4993498;28;20512;-83
2021/05/23 13:21:54;;;;;;;1.17;0.67;;;13.60;96.30;;;;;;4994724;28;20429;-83
2021/05/23 13:24:23;;;;;;;1.47;0.70;;;14.70;96.30;;;;;;4993364;28;20476;-82
2021/05/23 13:27:01;;;;;;;3.13;0.73;;;15.60;96.30;;;;;;4992523;28;20432;-83
2021/05/23 13:29:28;;;;;;;1.80;0.80;;;16.70;96.30;;;;;;4993262;28;20443;-83
2021/05/23 13:31:54;;;;;;;1.37;0.90;;;17.50;90.10;;;;;;4994104;28;20524;-85
2021/05/23 13:34:20;;;;;;;2.10;0.80;;;17.80;91.10;;;;;;4992822;28;20842;-83
2021/05/23 13:36:46;;;;;;;3.13;0.70;;;17.20;84.40;;;;;;4993874;28;20440;-82
2021/05/23 13:39:13;;;;;;;1.10;0.60;;;16.60;89.90;;;;;;4993847;28;20182;-81
2021/05/23 13:41:39;;;;;;;1.83;0.70;;;17.10;89.60;;;;;;4994798;28;20746;-84
2021/05/23 13:44:06;;;;;;;0.87;0.60;;;17.10;85.60;;;;;;4994667;28;20409;-81
2021/05/23 13:46:32;;;;;;;0.90;0.60;;;17.70;84.40;;;;;;4993556;28;20636;-82
2021/05/23 13:48:58;;;;;;;0.90;0.60;;;17.60;79.30;;;;;;4994408;28;20452;-82
2021/05/23 13:51:23;;;;;;;0.80;0.50;;;16.30;81.00;;;;;;4993033;28;20797;-82
2021/05/23 13:53:49;;;;;;;0.90;0.67;;;15.60;83.80;;;;;;4992265;28;20248;-81
2021/05/23 13:56:15;;;;;;;1.00;0.53;;;15.10;83.30;;;;;;4984888;28;20181;-81
2021/05/23 13:58:40;;;;;;;2.20;0.70;;;13.60;96.30;;;;;;4985078;28;20185;-83
2021/05/23 14:01:06;;;;;;;3.03;0.80;;;12.50;96.30;;;;;;4985562;28;20213;-82
2021/05/23 14:03:31;;;;;;;1.80;0.77;;;12.30;96.30;;;;;;4980808;28;20865;-80
2021/05/23 14:05:57;;;;;;;0.80;0.50;;;12.50;96.30;;;;;;4979503;28;20187;-81
2021/05/23 14:08:24;;;;;;;1.50;0.70;;;12.60;96.30;;;;;;4992707;28;20209;-81
2021/05/23 14:10:51;;;;;;;4.10;0.70;;;13.10;96.30;;;;;;4975247;28;20206;-81
2021/05/23 14:13:18;;;;;;;2.10;0.70;;;13.90;96.30;;;;;;4987305;28;20428;-81
2021/05/23 14:15:44;;;;;;;1.50;1.03;;;14.40;96.30;;;;;;4985380;28;21739;-78
2021/05/23 14:18:10;;;;;;;1.40;0.60;;;15.50;96.30;;;;;;4987945;28;20428;-81
2021/05/23 14:20:36;;;;;;;1.10;0.70;;;16.00;96.30;;;;;;4988963;28;20452;-83
2021/05/23 14:23:03;;;;;;;2.33;0.70;;;16.10;94.50;;;;;;4990656;28;20787;-81
2021/05/23 14:25:30;;;;;;;0.90;0.60;;;15.70;92.20;;;;;;4983532;28;20189;-82
2021/05/23 14:27:55;;;;;;;1.57;0.60;;;15.70;91.40;;;;;;4989468;28;20975;-82
2021/05/23 14:30:21;;;;;;;1.00;0.70;;;16.00;92.90;;;;;;4986911;28;20429;-82
2021/05/23 14:32:48;;;;;;;1.10;0.60;;;16.20;92.60;;;;;;4981458;28;20253;-82
2021/05/23 14:35:18;;;;;;;0.80;0.50;;;16.40;92.40;;;;;;4976370;28;20420;-82
2021/05/23 14:37:44;;;;;;;4.03;0.73;;;16.20;91.30;;;;;;4976400;28;20485;-83
2021/05/23 14:40:12;;;;;;;0.90;0.67;;;15.30;87.80;;;;;;4983554;28;20417;-83
2021/05/23 14:42:37;;;;;;;1.53;0.70;;;15.00;92.00;;;;;;5042536;23;20866;-77
2021/05/23 14:45:04;;;;;;;1.00;0.63;;;14.80;89.50;;;;;;5015239;28;20423;-77
2021/05/23 14:47:30;;;;;;;3.43;1.20;;;14.50;90.80;;;;;;5029972;28;20196;-77
2021/05/23 14:49:55;;;;;;;0.90;0.73;;;14.30;94.30;;;;;;5032351;28;20899;-78
2021/05/23 14:52:22;;;;;;;1.10;0.67;;;14.30;94.10;;;;;;5013017;28;20569;-76
2021/05/23 14:54:49;;;;;;;0.80;0.60;;;14.60;94.50;;;;;;5010204;28;20169;-76
2021/05/23 14:57:15;;;;;;;2.40;0.77;;;15.10;91.80;;;;;;5012387;28;20416;-76
2021/05/23 14:59:43;;;;;;;1.83;0.70;;;15.00;88.80;;;;;;5005008;28;20476;-75
2021/05/23 15:02:13;;;;;;;0.87;0.60;;;14.80;90.00;;;;;;4992821;28;20446;-74
2021/05/23 15:04:40;;;;;;;1.20;0.67;;;14.60;89.40;;;;;;4992998;28;20439;-74
2021/05/23 15:07:06;;;;;;;2.03;0.63;;;15.30;91.70;;;;;;4997886;28;20765;-74
2021/05/23 15:09:32;;;;;;;1.97;0.80;;;16.00;89.10;;;;;;5009345;28;20477;-77
2021/05/23 15:11:58;;;;;;;1.37;0.80;;;15.80;82.20;;;;;;5007730;28;20866;-76
2021/05/23 15:14:24;;;;;;;1.73;0.70;;;15.30;82.80;;;;;;5009608;28;20427;-76
2021/05/23 15:16:50;;;;;;;2.60;0.70;;;15.30;87.50;;;;;;4995744;28;20408;-76
2021/05/23 15:19:16;;;;;;;1.00;0.60;;;15.20;88.20;;;;;;4996818;28;20173;-76
2021/05/23 15:21:42;;;;;;;1.10;0.67;;;15.00;84.30;;;;;;4994368;28;20448;-76
2021/05/23 15:24:08;;;;;;;8.13;2.60;;;15.20;86.60;;;;;;5001437;28;20819;-76
2021/05/23 15:26:55;;;;;;;1.10;0.77;;;16.10;83.20;;;;;;5009411;28;20427;-76
2021/05/23 15:32:10;;;;;;;1.63;0.57;;;16.40;80.90;;;;;;5008078;28;20427;-76
2021/05/23 15:34:36;;;;;;;1.73;0.63;;;15.60;77.70;;;;;;5006540;28;20564;-76
2021/05/23 15:37:03;;;;;;;1.73;0.60;;;15.30;80.90;;;;;;4999314;28;20416;-76
2021/05/23 15:39:29;;;;;;;1.30;0.60;;;15.00;81.10;;;;;;5011877;28;20510;-76
2021/05/23 15:41:54;;;;;;;1.10;0.73;;;15.00;80.70;;;;;;4993904;28;20912;-75
2021/05/23 15:44:20;;;;;;;1.10;0.57;;;14.60;80.60;;;;;;4995044;28;20195;-76
2021/05/23 15:46:46;;;;;;;2.30;0.80;;;14.50;81.30;;;;;;5011802;28;20180;-76
2021/05/23 15:49:13;;;;;;;1.77;0.80;;;14.60;82.50;;;;;;5012201;28;20582;-76
2021/05/23 15:51:39;;;;;;;1.50;0.63;;;15.20;80.50;;;;;;5012323;28;20431;-74
2021/05/23 15:54:05;;;;;;;1.17;0.70;;;16.10;79.20;;;;;;4994162;28;20901;-75
2021/05/23 15:56:31;;;;;;;2.30;1.03;;;16.70;75.80;;;;;;5003016;28;20419;-75
2021/05/23 15:58:57;;;;;;;3.00;2.70;;;16.30;77.40;;;;;;5007978;28;20424;-75
2021/05/23 16:01:23;;;;;;;1.27;0.90;;;15.70;76.90;;;;;;5009554;28;20268;-76
2021/05/23 16:03:50;;;;;;;1.70;0.80;;;15.80;80.00;;;;;;5001445;28;20213;-77
2021/05/23 16:06:18;;;;;;;1.87;0.60;;;16.00;77.10;;;;;;5010942;28;20416;-77
2021/05/23 16:08:44;;;;;;;1.23;0.83;;;16.10;79.20;;;;;;5005919;28;20463;-77
2021/05/23 16:11:11;;;;;;;1.00;0.60;;;15.70;79.20;;;;;;5012991;28;20462;-76
2021/05/23 16:13:36;;;;;;;1.57;0.60;;;16.00;78.50;;;;;;4997841;28;20420;-76
2021/05/23 16:16:02;;;;;;;0.80;0.60;;;15.80;79.10;;;;;;4995354;28;20413;-76
2021/05/23 16:18:28;;;;;;;1.53;0.67;;;16.10;79.70;;;;;;5013652;28;20184;-76
2021/05/23 16:20:54;;;;;;;1.33;0.70;;;16.30;76.90;;;;;;5008604;28;20169;-75
2021/05/23 16:23:19;;;;;;;2.10;0.93;;;16.10;76.60;;;;;;5007415;28;20177;-76
2021/05/23 16:25:45;;;;;;;0.97;0.63;;;15.70;77.80;;;;;;5004501;28;20169;-76
2021/05/23 16:28:10;;;;;;;1.40;0.87;;;15.30;79.10;;;;;;5005404;28;20197;-76
2021/05/23 16:30:36;;;;;;;2.50;0.80;;;14.90;78.90;;;;;;5013519;28;20205;-75
2021/05/23 16:33:02;;;;;;;0.90;0.70;;;14.90;79.00;;;;;;5001207;28;20193;-76
2021/05/23 16:35:28;;;;;;;1.30;0.60;;;15.50;81.90;;;;;;5002573;28;20413;-75
2021/05/23 16:37:53;;;;;;;1.73;0.80;;;15.70;78.90;;;;;;4994759;28;20188;-75
2021/05/23 16:40:19;;;;;;;1.57;0.90;;;15.60;79.70;;;;;;5008321;28;20665;-75
2021/05/23 16:42:44;;;;;;;1.40;0.90;;;15.70;79.90;;;;;;4996466;28;20562;-76
2021/05/23 16:45:11;;;;;;;1.77;0.70;;;15.80;79.50;;;;;;5004352;28;20264;-76
2021/05/23 16:47:38;;;;;;;3.93;0.80;;;15.60;80.30;;;;;;5001063;28;20197;-76
2021/05/23 16:50:05;;;;;;;1.17;0.60;;;15.30;79.70;;;;;;5009936;28;20447;-76
2021/05/23 16:52:31;;;;;;;2.23;0.70;;;15.10;81.40;;;;;;5010541;28;20432;-75
2021/05/23 16:54:56;;;;;;;1.40;0.77;;;14.90;79.80;;;;;;4995073;28;20405;-75